createdAt,value
2023-03-29T00:01:01.443Z,101546.66
2023-03-29T00:03:30.607Z,101541.03
2023-03-29T00:06:03.008Z,101540.97
2023-03-29T00:08:33.902Z,101535.72
2023-03-29T00:11:03.077Z,101534.44
2023-03-29T00:13:31.027Z,101532.66
2023-03-29T00:15:58.663Z,101527.19
2023-03-29T00:18:26.397Z,101528.00
2023-03-29T00:20:57.089Z,101527.44
2023-03-29T00:23:25.004Z,101520.94
2023-03-29T00:25:53.734Z,101520.78
2023-03-29T00:28:22.822Z,101511.63
2023-03-29T00:30:51.276Z,101509.59
2023-03-29T00:33:20.435Z,101506.16
2023-03-29T00:35:48.330Z,101505.38
2023-03-29T00:38:16.313Z,101501.06
2023-03-29T00:40:44.573Z,101509.31
2023-03-29T00:43:12.686Z,101497.81
2023-03-29T00:45:42.177Z,101501.44
2023-03-29T00:48:10.246Z,101498.03
2023-03-29T00:50:39.374Z,101496.75
2023-03-29T00:53:08.000Z,101499.25
2023-03-29T00:55:36.447Z,101493.69
2023-03-29T00:58:04.400Z,101484.84
2023-03-29T01:00:32.784Z,101489.34
2023-03-29T01:03:01.945Z,101479.66
2023-03-29T01:05:30.916Z,101480.00
2023-03-29T01:07:59.619Z,101475.97
2023-03-29T01:10:28.358Z,101470.69
2023-03-29T01:12:57.532Z,101468.47
2023-03-29T01:15:26.510Z,101465.41
2023-03-29T01:17:55.540Z,101464.53
2023-03-29T01:20:26.170Z,101453.72
2023-03-29T01:23:01.697Z,101459.94
2023-03-29T01:25:32.152Z,101444.13
2023-03-29T01:28:02.343Z,101443.47
2023-03-29T01:30:30.796Z,101432.56
2023-03-29T01:32:59.157Z,101431.91
2023-03-29T01:35:28.616Z,101427.28
2023-03-29T01:37:57.686Z,101425.16
2023-03-29T01:40:27.254Z,101427.75
2023-03-29T01:42:58.288Z,101422.38
2023-03-29T01:45:27.922Z,101409.28
2023-03-29T01:47:56.222Z,101416.00
2023-03-29T01:50:26.145Z,101409.13
2023-03-29T01:52:55.043Z,101402.16
2023-03-29T01:55:23.578Z,101402.09
2023-03-29T01:57:52.082Z,101402.66
2023-03-29T02:00:20.221Z,101393.22
2023-03-29T02:02:49.266Z,101389.19
2023-03-29T02:05:17.074Z,101386.34
2023-03-29T02:07:44.827Z,101387.69
2023-03-29T02:10:13.004Z,101384.50
2023-03-29T02:12:42.207Z,101379.69
2023-03-29T02:15:12.351Z,101372.88
2023-03-29T02:17:40.127Z,101374.13
2023-03-29T02:20:14.262Z,101376.00
2023-03-29T02:22:44.046Z,101370.84
2023-03-29T02:25:12.865Z,101365.66
2023-03-29T02:27:40.815Z,101355.81
2023-03-29T02:30:09.062Z,101353.97
2023-03-29T02:32:38.017Z,101351.50
2023-03-29T02:35:06.910Z,101348.31
2023-03-29T02:37:36.328Z,101343.13
2023-03-29T02:40:08.670Z,101338.31
2023-03-29T02:42:37.001Z,101347.09
2023-03-29T02:45:05.599Z,101336.00
2023-03-29T02:47:33.614Z,101329.34
2023-03-29T02:50:01.384Z,101335.53
2023-03-29T02:52:33.410Z,101335.22
2023-03-29T02:55:03.057Z,101330.56
2023-03-29T02:57:32.469Z,101326.75
2023-03-29T03:00:00.156Z,101320.78
2023-03-29T03:02:28.065Z,101321.44
2023-03-29T03:04:57.481Z,101315.41
2023-03-29T03:07:25.909Z,101315.97
2023-03-29T03:09:53.590Z,101313.72
2023-03-29T03:12:22.722Z,101304.16
2023-03-29T03:14:50.336Z,101302.31
2023-03-29T03:17:18.729Z,101295.19
2023-03-29T03:19:48.102Z,101299.81
2023-03-29T03:22:15.774Z,101301.81
2023-03-29T03:24:43.836Z,101297.34
2023-03-29T03:27:12.414Z,101292.28
2023-03-29T03:29:42.130Z,101294.25
2023-03-29T03:32:09.860Z,101289.75
2023-03-29T03:34:58.582Z,101289.00
2023-03-29T03:37:27.473Z,101284.41
2023-03-29T03:39:55.608Z,101281.97
2023-03-29T03:42:24.918Z,101281.91
2023-03-29T03:44:57.228Z,101283.31
2023-03-29T03:47:44.508Z,101275.63
2023-03-29T03:50:33.163Z,101276.97
2023-03-29T03:53:01.458Z,101284.78
2023-03-29T03:55:42.784Z,101280.50
2023-03-29T03:58:14.747Z,101277.53
2023-03-29T04:00:44.664Z,101282.41
2023-03-29T04:03:27.056Z,101274.25
2023-03-29T04:05:54.852Z,101273.25
2023-03-29T04:08:27.190Z,101271.97
2023-03-29T04:11:10.443Z,101273.16
2023-03-29T04:13:41.545Z,101270.31
2023-03-29T04:16:42.899Z,101272.34
2023-03-29T04:19:30.475Z,101266.28
2023-03-29T04:21:58.158Z,101270.88
2023-03-29T04:24:26.033Z,101267.25
2023-03-29T04:27:16.266Z,101264.97
2023-03-29T04:29:44.807Z,101269.75
2023-03-29T04:32:24.725Z,101265.41
2023-03-29T04:35:05.719Z,101264.72
2023-03-29T04:37:33.673Z,101268.50
2023-03-29T04:40:02.484Z,101262.00
2023-03-29T04:42:37.282Z,101258.47
2023-03-29T04:45:06.897Z,101261.56
2023-03-29T04:47:54.489Z,101252.28
2023-03-29T04:50:22.180Z,101259.72
2023-03-29T04:52:50.763Z,101257.47
2023-03-29T04:55:18.534Z,101260.13
2023-03-29T04:57:56.757Z,101252.34
2023-03-29T05:00:31.580Z,101258.09
2023-03-29T05:03:22.028Z,101251.31
2023-03-29T05:05:56.018Z,101244.59
2023-03-29T05:08:24.064Z,101245.63
2023-03-29T05:11:13.568Z,101230.22
2023-03-29T05:13:42.554Z,101230.59
2023-03-29T05:16:11.301Z,101227.06
2023-03-29T05:18:41.240Z,101230.66
2023-03-29T05:21:09.595Z,101232.22
2023-03-29T05:23:39.604Z,101231.25
2023-03-29T05:26:26.504Z,101229.81
2023-03-29T05:28:55.557Z,101226.66
2023-03-29T05:31:23.713Z,101225.78
2023-03-29T05:33:56.233Z,101229.47
2023-03-29T05:36:24.712Z,101226.13
2023-03-29T05:38:52.626Z,101217.50
2023-03-29T05:41:22.757Z,101219.63
2023-03-29T05:43:56.208Z,101215.56
2023-03-29T05:46:26.165Z,101214.72
2023-03-29T05:48:58.504Z,101218.91
2023-03-29T05:51:41.960Z,101214.97
2023-03-29T05:54:09.891Z,101207.44
2023-03-29T05:56:37.632Z,101214.28
2023-03-29T05:59:05.477Z,101214.50
2023-03-29T06:01:33.602Z,101214.19
2023-03-29T06:04:07.355Z,101217.53
2023-03-29T06:06:45.457Z,101215.63
2023-03-29T06:09:13.297Z,101224.63
2023-03-29T06:11:49.323Z,101216.09
2023-03-29T06:14:32.564Z,101222.63
2023-03-29T06:17:11.219Z,101212.34
2023-03-29T06:19:40.557Z,101212.03
2023-03-29T06:22:08.427Z,101210.81
2023-03-29T06:24:36.482Z,101211.25
2023-03-29T06:27:11.235Z,101210.22
2023-03-29T06:29:51.403Z,101218.22
2023-03-29T06:32:20.012Z,101210.53
2023-03-29T06:34:58.719Z,101206.56
2023-03-29T06:37:31.914Z,101212.66
2023-03-29T06:40:13.167Z,101207.81
2023-03-29T06:42:45.342Z,101220.84
2023-03-29T06:45:36.681Z,101211.25
2023-03-29T06:48:09.423Z,101211.69
2023-03-29T06:50:38.707Z,101199.16
2023-03-29T06:53:11.867Z,101206.94
2023-03-29T06:55:41.264Z,101199.81
2023-03-29T06:58:27.949Z,101188.16
2023-03-29T07:01:08.570Z,101199.22
2023-03-29T07:03:54.242Z,101185.25
2023-03-29T07:06:29.441Z,101189.63
2023-03-29T07:08:59.788Z,101193.50
2023-03-29T07:11:52.340Z,101199.66
2023-03-29T07:14:28.805Z,101196.84
2023-03-29T07:16:58.696Z,101191.19
2023-03-29T07:19:35.772Z,101195.28
2023-03-29T07:22:12.019Z,101188.19
2023-03-29T07:24:51.055Z,101191.38
2023-03-29T07:27:19.600Z,101195.75
2023-03-29T07:29:50.786Z,101192.06
2023-03-29T07:32:20.975Z,101202.19
2023-03-29T07:35:08.923Z,101197.72
2023-03-29T07:37:45.916Z,101196.81
2023-03-29T07:40:19.508Z,101192.06
2023-03-29T07:43:00.230Z,101189.94
2023-03-29T07:45:35.389Z,101180.09
2023-03-29T07:48:20.635Z,101177.53
2023-03-29T07:50:55.015Z,101189.25
2023-03-29T07:53:30.473Z,101180.28
2023-03-29T07:56:00.281Z,101181.13
2023-03-29T07:58:50.778Z,101175.06
2023-03-29T08:01:20.416Z,101169.56
2023-03-29T08:04:12.586Z,101170.06
2023-03-29T08:07:00.472Z,101177.50
2023-03-29T08:09:45.021Z,101179.16
2023-03-29T08:12:13.162Z,101180.00
2023-03-29T08:14:40.920Z,101184.91
2023-03-29T08:17:16.905Z,101177.97
2023-03-29T08:19:51.260Z,101179.13
2023-03-29T08:22:24.735Z,101177.00
2023-03-29T08:25:23.042Z,101172.88
2023-03-29T08:27:54.061Z,101173.97
2023-03-29T08:30:41.288Z,101180.13
2023-03-29T08:33:09.092Z,101168.28
2023-03-29T08:35:37.478Z,101160.97
2023-03-29T08:38:19.134Z,101150.88
2023-03-29T08:40:49.967Z,101147.34
2023-03-29T08:43:28.572Z,101150.59
2023-03-29T08:46:18.169Z,101148.63
2023-03-29T08:48:46.837Z,101144.91
2023-03-29T08:51:21.447Z,101142.09
2023-03-29T08:53:52.825Z,101155.41
2023-03-29T08:56:34.382Z,101144.56
2023-03-29T08:59:20.823Z,101136.47
2023-03-29T09:01:50.248Z,101142.41
2023-03-29T09:04:18.764Z,101139.31
2023-03-29T09:07:12.570Z,101128.47
2023-03-29T09:09:48.003Z,101129.78
2023-03-29T09:12:30.814Z,101120.91
2023-03-29T09:15:06.628Z,101123.19
2023-03-29T09:17:37.988Z,101119.75
2023-03-29T09:20:13.700Z,101136.94
2023-03-29T09:22:43.454Z,101125.25
2023-03-29T09:25:13.256Z,101134.38
2023-03-29T09:27:47.404Z,101125.22
2023-03-29T09:30:26.987Z,101135.41
2023-03-29T09:32:58.571Z,101135.13
2023-03-29T09:35:35.671Z,101122.22
2023-03-29T09:38:03.440Z,101120.09
2023-03-29T09:40:32.586Z,101113.13
2023-03-29T09:43:11.447Z,101105.69
2023-03-29T09:45:39.431Z,101119.75
2023-03-29T09:48:08.036Z,101113.44
2023-03-29T09:50:37.860Z,101112.44
2023-03-29T09:53:09.086Z,101118.34
2023-03-29T09:55:40.727Z,101106.16
2023-03-29T09:58:31.623Z,101092.16
2023-03-29T10:00:59.697Z,101109.41
2023-03-29T10:03:28.571Z,101110.63
2023-03-29T10:06:12.193Z,101101.69
2023-03-29T10:08:45.650Z,101107.56
2023-03-29T10:11:14.109Z,101093.56
2023-03-29T10:13:47.110Z,101088.91
2023-03-29T10:16:20.013Z,101091.34
2023-03-29T10:18:50.075Z,101081.63
2023-03-29T10:21:20.132Z,101074.63
2023-03-29T10:23:48.261Z,101068.75
2023-03-29T10:26:22.817Z,101075.00
2023-03-29T10:28:52.735Z,101075.13
2023-03-29T10:31:21.229Z,101066.84
2023-03-29T10:33:51.734Z,101069.97
2023-03-29T10:36:19.440Z,101062.38
2023-03-29T10:38:47.505Z,101062.16
2023-03-29T10:41:15.810Z,101073.53
2023-03-29T10:43:44.235Z,101063.41
2023-03-29T10:46:14.403Z,101062.88
2023-03-29T10:48:46.289Z,101051.91
2023-03-29T10:51:14.711Z,101050.44
2023-03-29T10:53:42.425Z,101047.41
2023-03-29T10:56:15.820Z,101041.22
2023-03-29T10:58:47.086Z,101046.63
2023-03-29T11:01:17.422Z,101033.06
2023-03-29T11:03:55.416Z,101031.19
2023-03-29T11:06:24.171Z,101035.97
2023-03-29T11:08:53.650Z,101031.22
2023-03-29T11:11:26.311Z,101028.31
2023-03-29T11:13:56.171Z,101030.38
2023-03-29T11:16:28.576Z,101032.03
2023-03-29T11:19:23.395Z,101025.63
2023-03-29T11:21:52.487Z,101039.97
2023-03-29T11:24:30.625Z,101025.72
2023-03-29T11:27:01.307Z,101027.06
2023-03-29T11:29:29.517Z,101021.78
2023-03-29T11:31:59.945Z,101026.06
2023-03-29T11:34:29.569Z,101022.78
2023-03-29T11:36:58.694Z,101022.97
2023-03-29T11:39:29.684Z,101014.78
2023-03-29T11:41:57.589Z,101000.31
2023-03-29T11:44:25.751Z,101005.47
2023-03-29T11:46:54.908Z,101010.56
2023-03-29T11:49:24.510Z,101012.28
2023-03-29T11:51:54.304Z,101005.28
2023-03-29T11:54:23.098Z,101003.13
2023-03-29T11:56:52.183Z,101009.03
2023-03-29T11:59:22.203Z,101001.66
2023-03-29T12:01:50.606Z,101003.38
2023-03-29T12:04:22.771Z,101013.13
2023-03-29T12:06:54.014Z,101010.22
2023-03-29T12:09:26.647Z,101016.91
2023-03-29T12:11:55.964Z,101002.69
2023-03-29T12:14:26.661Z,100996.94
2023-03-29T12:16:56.019Z,100985.25
2023-03-29T12:19:24.398Z,100987.97
2023-03-29T12:21:54.491Z,100986.22
2023-03-29T12:24:23.018Z,100984.66
2023-03-29T12:26:54.341Z,100988.94
2023-03-29T12:29:27.661Z,100985.81
2023-03-29T12:31:56.710Z,100973.97
2023-03-29T12:34:34.132Z,100991.28
2023-03-29T12:37:42.346Z,100986.00
2023-03-29T12:40:13.764Z,100996.63
2023-03-29T12:43:01.223Z,100980.34
2023-03-29T12:46:07.011Z,100972.16
2023-03-29T12:48:34.797Z,100962.13
2023-03-29T12:51:03.033Z,100973.03
2023-03-29T12:53:34.115Z,100964.97
2023-03-29T12:56:09.516Z,100962.25
2023-03-29T12:58:44.289Z,100965.91
2023-03-29T13:01:24.098Z,100961.13
2023-03-29T13:03:52.869Z,100943.50
2023-03-29T13:06:31.431Z,100938.16
2023-03-29T13:09:01.446Z,100931.59
2023-03-29T13:11:30.295Z,100928.97
2023-03-29T13:13:58.337Z,100933.88
2023-03-29T13:16:30.025Z,100929.41
2023-03-29T13:19:01.284Z,100945.53
2023-03-29T13:21:31.310Z,100958.06
2023-03-29T13:24:02.449Z,100945.81
2023-03-29T13:26:49.129Z,100944.13
2023-03-29T13:29:23.238Z,100931.00
2023-03-29T13:31:52.730Z,100946.69
2023-03-29T13:34:24.044Z,100946.88
2023-03-29T13:36:55.088Z,100951.31
2023-03-29T13:39:24.569Z,100944.06
2023-03-29T13:41:53.187Z,100929.16
2023-03-29T13:44:29.623Z,100943.00
2023-03-29T13:47:04.722Z,100929.97
2023-03-29T13:49:32.524Z,100936.88
2023-03-29T13:52:03.391Z,100933.16
2023-03-29T13:54:33.764Z,100936.03
2023-03-29T13:57:03.017Z,100936.59
2023-03-29T13:59:33.230Z,100929.00
2023-03-29T14:02:02.784Z,100931.44
2023-03-29T14:04:31.792Z,100934.38
2023-03-29T14:06:59.476Z,100925.47
2023-03-29T14:09:29.964Z,100912.81
2023-03-29T14:11:59.082Z,100927.47
2023-03-29T14:14:27.421Z,100929.69
2023-03-29T14:16:55.972Z,100926.44
2023-03-29T14:19:25.959Z,100932.06
2023-03-29T14:21:54.174Z,100935.84
2023-03-29T14:24:22.850Z,100929.38
2023-03-29T14:26:50.768Z,100934.06
2023-03-29T14:29:19.853Z,100929.44
2023-03-29T14:31:47.523Z,100914.31
2023-03-29T14:34:16.060Z,100924.47
2023-03-29T14:36:45.404Z,100918.78
2023-03-29T14:39:14.243Z,100916.81
2023-03-29T14:41:41.899Z,100911.84
2023-03-29T14:44:09.619Z,100920.25
2023-03-29T14:46:38.973Z,100917.91
2023-03-29T14:49:07.286Z,100918.88
2023-03-29T14:51:34.906Z,100920.91
2023-03-29T14:54:03.199Z,100909.13
2023-03-29T14:56:32.561Z,100910.16
2023-03-29T14:59:00.600Z,100914.66
2023-03-29T15:01:28.293Z,100909.50
2023-03-29T15:04:02.745Z,100908.75
2023-03-29T15:06:30.835Z,100910.75
2023-03-29T15:09:06.056Z,100902.31
2023-03-29T15:11:34.957Z,100905.91
2023-03-29T15:14:03.838Z,100908.00
2023-03-29T15:16:31.899Z,100908.28
2023-03-29T15:19:01.456Z,100908.41
2023-03-29T15:21:30.189Z,100904.69
2023-03-29T15:23:58.340Z,100897.19
2023-03-29T15:26:29.036Z,100894.38
2023-03-29T15:29:02.988Z,100878.00
2023-03-29T15:31:34.652Z,100882.34
2023-03-29T15:34:06.346Z,100869.28
2023-03-29T15:36:36.049Z,100872.94
2023-03-29T15:39:03.993Z,100865.94
2023-03-29T15:41:32.205Z,100857.34
2023-03-29T15:43:59.845Z,100853.44
2023-03-29T15:46:27.969Z,100847.38
2023-03-29T15:48:55.791Z,100853.75
2023-03-29T15:51:26.782Z,100843.03
2023-03-29T15:53:54.442Z,100847.03
2023-03-29T15:56:22.942Z,100838.59
2023-03-29T15:58:50.917Z,100830.59
2023-03-29T16:01:23.746Z,100826.59
2023-03-29T16:03:51.967Z,100832.22
2023-03-29T16:06:22.231Z,100829.44
2023-03-29T16:08:51.443Z,100824.56
2023-03-29T16:11:19.039Z,100830.94
2023-03-29T16:13:46.767Z,100828.31
2023-03-29T16:16:14.497Z,100827.75
2023-03-29T16:18:42.292Z,100826.06
2023-03-29T16:21:12.453Z,100825.94
2023-03-29T16:23:40.714Z,100820.47
2023-03-29T16:26:11.812Z,100820.19
2023-03-29T16:28:39.494Z,100825.53
2023-03-29T16:31:07.213Z,100826.16
2023-03-29T16:33:34.853Z,100830.94
2023-03-29T16:36:04.555Z,100837.84
2023-03-29T16:38:33.749Z,100831.09
2023-03-29T16:41:04.126Z,100828.19
2023-03-29T16:43:33.158Z,100827.59
2023-03-29T16:46:02.306Z,100833.56
2023-03-29T16:48:30.202Z,100826.19
2023-03-29T16:51:00.891Z,100823.09
2023-03-29T16:53:30.248Z,100821.97
2023-03-29T16:55:57.921Z,100829.09
2023-03-29T16:58:25.793Z,100831.78
2023-03-29T17:00:56.944Z,100820.97
2023-03-29T17:03:25.956Z,100816.25
2023-03-29T17:05:54.577Z,100819.44
2023-03-29T17:08:22.505Z,100818.50
2023-03-29T17:10:52.827Z,100814.84
2023-03-29T17:13:21.193Z,100813.88
2023-03-29T17:15:48.820Z,100816.81
2023-03-29T17:18:18.027Z,100820.56
2023-03-29T17:20:45.848Z,100814.91
2023-03-29T17:23:13.530Z,100814.50
2023-03-29T17:25:41.172Z,100811.09
2023-03-29T17:28:10.695Z,100814.72
2023-03-29T17:30:38.375Z,100819.34
2023-03-29T17:33:06.162Z,100807.44
2023-03-29T17:35:35.196Z,100819.69
2023-03-29T17:38:02.883Z,100799.06
2023-03-29T17:40:30.488Z,100800.44
2023-03-29T17:42:58.155Z,100804.97
2023-03-29T17:45:25.788Z,100811.41
2023-03-29T17:47:53.451Z,100797.72
2023-03-29T17:50:21.590Z,100804.47
2023-03-29T17:52:50.707Z,100806.25
2023-03-29T17:55:18.641Z,100803.44
2023-03-29T17:57:49.773Z,100802.69
2023-03-29T18:00:17.797Z,100802.31
2023-03-29T18:02:45.908Z,100805.09
2023-03-29T18:05:13.751Z,100805.59
2023-03-29T18:07:41.424Z,100806.88
2023-03-29T18:10:11.266Z,100809.28
2023-03-29T18:12:38.918Z,100811.66
2023-03-29T18:15:09.536Z,100811.44
2023-03-29T18:17:37.222Z,100806.88
2023-03-29T18:20:11.550Z,100807.28
2023-03-29T18:22:39.488Z,100805.13
2023-03-29T18:25:07.768Z,100808.44
2023-03-29T18:27:36.945Z,100813.13
2023-03-29T18:30:04.897Z,100808.25
2023-03-29T18:32:32.598Z,100814.50
2023-03-29T18:35:02.217Z,100807.72
2023-03-29T18:37:29.946Z,100806.28
2023-03-29T18:39:57.556Z,100811.94
2023-03-29T18:42:25.194Z,100812.88
2023-03-29T18:44:54.201Z,100815.78
2023-03-29T18:47:22.195Z,100811.41
2023-03-29T18:49:49.809Z,100811.38
2023-03-29T18:52:17.460Z,100813.66
2023-03-29T18:54:45.105Z,100810.72
2023-03-29T18:57:12.825Z,100815.75
2023-03-29T18:59:40.791Z,100816.91
2023-03-29T19:02:10.724Z,100813.31
2023-03-29T19:04:38.365Z,100811.94
2023-03-29T19:07:06.744Z,100810.13
2023-03-29T19:09:34.360Z,100820.16
2023-03-29T19:12:02.020Z,100812.97
2023-03-29T19:14:29.736Z,100809.81
2023-03-29T19:16:57.342Z,100808.75
2023-03-29T19:19:27.151Z,100798.09
2023-03-29T19:21:57.630Z,100797.38
2023-03-29T19:24:26.884Z,100801.69
2023-03-29T19:26:54.511Z,100796.34
2023-03-29T19:29:22.154Z,100804.19
2023-03-29T19:31:51.797Z,100799.28
2023-03-29T19:34:21.028Z,100804.94
2023-03-29T19:36:50.120Z,100790.53
2023-03-29T19:39:17.730Z,100793.22
2023-03-29T19:41:45.307Z,100793.34
2023-03-29T19:44:13.708Z,100786.59
2023-03-29T19:46:41.716Z,100787.06
2023-03-29T19:49:13.552Z,100779.75
2023-03-29T19:51:41.291Z,100780.63
2023-03-29T19:54:12.704Z,100771.59
2023-03-29T19:56:40.622Z,100767.22
2023-03-29T19:59:10.897Z,100759.38
2023-03-29T20:01:40.565Z,100761.97
2023-03-29T20:04:08.670Z,100771.00
2023-03-29T20:06:36.462Z,100754.94
2023-03-29T20:09:05.182Z,100753.66
2023-03-29T20:11:34.175Z,100756.47
2023-03-29T20:14:01.817Z,100757.13
2023-03-29T20:16:33.048Z,100755.16
2023-03-29T20:19:05.878Z,100747.84
2023-03-29T20:21:34.258Z,100757.47
2023-03-29T20:24:01.897Z,100760.88
2023-03-29T20:26:29.495Z,100756.78
2023-03-29T20:28:58.473Z,100758.06
2023-03-29T20:31:27.361Z,100755.25
2023-03-29T20:33:56.986Z,100752.47
2023-03-29T20:36:26.658Z,100745.31
2023-03-29T20:38:56.142Z,100739.75
2023-03-29T20:41:23.899Z,100734.72
2023-03-29T20:43:58.292Z,100730.44
2023-03-29T20:46:33.186Z,100731.22
2023-03-29T20:49:01.323Z,100721.00
2023-03-29T20:51:30.350Z,100720.84
2023-03-29T20:54:02.528Z,100721.38
2023-03-29T20:56:30.614Z,100717.53
2023-03-29T20:58:58.859Z,100708.59
2023-03-29T21:01:29.610Z,100715.22
2023-03-29T21:03:57.335Z,100711.94
2023-03-29T21:06:25.274Z,100708.03
2023-03-29T21:08:53.443Z,100711.91
2023-03-29T21:11:21.235Z,100702.66
2023-03-29T21:13:48.818Z,100702.13
2023-03-29T21:16:16.553Z,100699.25
2023-03-29T21:18:45.564Z,100709.69
2023-03-29T21:21:13.173Z,100704.81
2023-03-29T21:23:40.810Z,100691.47
2023-03-29T21:26:09.260Z,100700.22
2023-03-29T21:28:37.509Z,100704.50
2023-03-29T21:31:06.284Z,100694.56
2023-03-29T21:33:34.219Z,100701.97
2023-03-29T21:36:03.347Z,100689.75
2023-03-29T21:38:31.166Z,100690.00
2023-03-29T21:40:59.653Z,100681.72
2023-03-29T21:43:27.340Z,100681.16
2023-03-29T21:45:54.964Z,100672.25
2023-03-29T21:48:22.663Z,100668.63
2023-03-29T21:50:50.873Z,100663.00
2023-03-29T21:53:20.083Z,100656.72
2023-03-29T21:55:49.110Z,100658.09
2023-03-29T21:58:16.994Z,100652.28
2023-03-29T22:00:44.845Z,100657.31
2023-03-29T22:03:12.632Z,100653.16
2023-03-29T22:05:40.570Z,100655.22
2023-03-29T22:08:10.200Z,100653.13
2023-03-29T22:10:41.269Z,100646.00
2023-03-29T22:13:09.244Z,100644.44
2023-03-29T22:15:36.997Z,100650.75
2023-03-29T22:18:05.099Z,100640.81
2023-03-29T22:20:35.608Z,100643.13
2023-03-29T22:23:04.735Z,100647.19
2023-03-29T22:25:32.431Z,100640.63
2023-03-29T22:28:01.440Z,100638.19
2023-03-29T22:30:29.134Z,100647.03
2023-03-29T22:32:56.816Z,100643.88
2023-03-29T22:35:24.481Z,100644.06
2023-03-29T22:37:52.081Z,100635.22
2023-03-29T22:40:19.759Z,100629.00
2023-03-29T22:42:47.406Z,100638.13
2023-03-29T22:45:16.619Z,100630.66
2023-03-29T22:47:44.464Z,100633.75
2023-03-29T22:50:12.401Z,100636.88
2023-03-29T22:52:40.031Z,100626.19
2023-03-29T22:55:08.434Z,100623.94
2023-03-29T22:57:36.279Z,100631.28
2023-03-29T23:00:08.560Z,100615.66
2023-03-29T23:02:37.741Z,100613.63
2023-03-29T23:05:05.582Z,100612.91
2023-03-29T23:07:36.308Z,100617.66
2023-03-29T23:10:04.833Z,100606.91
2023-03-29T23:12:32.478Z,100596.59
2023-03-29T23:15:00.143Z,100595.63
2023-03-29T23:17:27.934Z,100593.00
2023-03-29T23:19:57.041Z,100598.56
2023-03-29T23:22:24.867Z,100591.88
2023-03-29T23:24:53.351Z,100589.84
2023-03-29T23:27:21.016Z,100590.75
2023-03-29T23:29:48.613Z,100594.59
2023-03-29T23:32:16.607Z,100581.19
2023-03-29T23:34:44.477Z,100582.88
2023-03-29T23:37:13.485Z,100582.53
2023-03-29T23:39:41.562Z,100581.81
2023-03-29T23:42:09.205Z,100579.09
2023-03-29T23:44:37.574Z,100575.63
2023-03-29T23:47:06.138Z,100577.63
2023-03-29T23:49:33.908Z,100571.63
2023-03-29T23:52:02.588Z,100571.09
2023-03-29T23:54:31.860Z,100575.31
2023-03-29T23:57:00.192Z,100568.50
2023-03-29T23:59:30.613Z,100572.66
